Current Weather Conditions: station PLSF1

sailwx.info

Wind from 170 at 13 knots gusting 14

Air temperature 28.8° C

Last reported at 2019-Oct-18 15:45 UTC.
Time now 2019-Oct-18 16:39 UTC

Location: N 24°41' W 082°46'.
View on Google Maps.

See reports from other nearby stations

  
Tides and Currents Weather Stations Pressure Air Temp Water Temp Dewpoint Dewpoint Depression Visibility Wind Speed Wind Dir Waves Ship Positions
date/time (UTC)wind fromknots sea level pressurealtimeterstation pressurevisibilityair tempwater tempwave heightnotes
2019-Oct-18 15:45 170 13 gusting 14 28.8
2019-Oct-18 14:45 160 14 gusting 15 28.8
2019-Oct-18 13:45 170 13 gusting 15 28.8
2019-Oct-18 12:45 170 15 gusting 17 28.6
2019-Oct-18 11:45 160 14 gusting 17 28.5
2019-Oct-18 10:45 170 11 gusting 13 28.7
2019-Oct-18 09:45 170 11 gusting 12 28.5
2019-Oct-18 08:45 170 9 gusting 11 28.5
2019-Oct-18 07:45 160 7 gusting 8 28.4
2019-Oct-18 06:45 170 7 gusting 8 28.5
2019-Oct-18 05:45 160 6 gusting 8 28.3
2019-Oct-18 04:45 160 6 gusting 6 28.2
2019-Oct-18 03:45 170 6 gusting 6 28.2
2019-Oct-18 02:45 260 0 gusting 1 28.3
2019-Oct-18 01:45 340 1 gusting 1 28.3
2019-Oct-18 00:45 28.2
2019-Oct-17 23:45 28.4
2019-Oct-17 22:45 220 1 gusting 1 28.4
2019-Oct-17 21:45 250 4 gusting 4 28.8
2019-Oct-17 20:45 250 1 gusting 1 29.4
2019-Oct-17 19:45 230 2 gusting 4 29.5
2019-Oct-17 18:45 220 2 gusting 4 29.5
2019-Oct-17 17:45 220 5 gusting 6 29.3
2019-Oct-17 16:45 200 0 gusting 1 29.5
2019-Oct-17 15:45 180 0 gusting 1 29.3
2019-Oct-17 14:45 210 4 gusting 5 29.1
2019-Oct-17 13:45 220 4 gusting 5 29.0
2019-Oct-17 12:45 260 1 gusting 4 28.9
2019-Oct-17 11:45 260 2 gusting 4 28.0
2019-Oct-17 10:45 27.9
2019-Oct-17 09:45 260 0 gusting 1 27.9
2019-Oct-17 08:45 27.9
2019-Oct-17 07:45 28.0
2019-Oct-17 06:45 170 0 gusting 0 28.0
2019-Oct-17 05:45 260 1 gusting 2 28.1
2019-Oct-17 04:45 230 4 gusting 5 28.2
2019-Oct-17 03:45 250 1 gusting 2 28.2
2019-Oct-17 02:45 28.4
2019-Oct-17 01:45 28.5
2019-Oct-17 00:45 300 1 gusting 2 28.5
2019-Oct-16 23:45 320 1 gusting 1 28.6
2019-Oct-16 22:45 300 1 gusting 1 29.1
2019-Oct-16 21:45 310 1 gusting 1 30.1
2019-Oct-16 20:45 320 2 gusting 2 29.5
2019-Oct-16 19:45 240 2 gusting 2 29.4
2019-Oct-16 18:45 230 5 gusting 5 29.1
2019-Oct-16 17:45 210 6 gusting 6 29.3
2019-Oct-16 16:45 190 1 gusting 2 29.1